createdAt,value
2019-04-28T00:01:07.082Z,97919.77
2019-04-28T00:03:39.073Z,97928.73
2019-04-28T00:06:11.274Z,97927.41
2019-04-28T00:08:43.244Z,97926.33
2019-04-28T00:11:15.389Z,97919.39
2019-04-28T00:13:47.385Z,97920.72
2019-04-28T00:16:21.182Z,97917.22
2019-04-28T00:18:53.200Z,97913.94
2019-04-28T00:21:32.050Z,97915.20
2019-04-28T00:24:28.670Z,97910.44
2019-04-28T00:27:05.258Z,97910.67
2019-04-28T00:29:41.172Z,97914.91
2019-04-28T00:32:11.307Z,97913.65
2019-04-28T00:34:43.441Z,97915.84
2019-04-28T00:37:28.924Z,97915.37
2019-04-28T00:40:01.405Z,97912.72
2019-04-28T00:42:33.458Z,97913.50
2019-04-28T00:45:06.821Z,97916.45
2019-04-28T00:47:38.813Z,97912.78
2019-04-28T00:50:11.753Z,97916.31
2019-04-28T00:52:43.880Z,97917.45
2019-04-28T00:55:15.931Z,97917.45
2019-04-28T00:57:47.926Z,97920.90
2019-04-28T01:00:23.157Z,97919.69
2019-04-28T01:02:55.224Z,97919.64
2019-04-28T01:05:27.324Z,97915.96
2019-04-28T01:08:01.004Z,97914.94
2019-04-28T01:10:33.168Z,97908.85
2019-04-28T01:13:05.151Z,97912.83
2019-04-28T01:15:49.752Z,97917.73
2019-04-28T01:18:30.390Z,97915.78
2019-04-28T01:21:02.339Z,97910.56
2019-04-28T01:23:34.330Z,97908.45
2019-04-28T01:26:06.350Z,97913.31
2019-04-28T01:28:39.800Z,97915.88
2019-04-28T01:31:23.368Z,97915.09
2019-04-28T01:34:17.162Z,97915.39
2019-04-28T01:36:49.587Z,97910.72
2019-04-28T01:39:22.928Z,97909.97
2019-04-28T01:41:54.915Z,97906.92
2019-04-28T01:44:26.908Z,97912.13
2019-04-28T01:47:00.937Z,97912.62
2019-04-28T01:49:32.617Z,97910.02
2019-04-28T01:52:04.936Z,97912.37
2019-04-28T01:54:36.918Z,97912.22
2019-04-28T01:57:10.156Z,97914.96
2019-04-28T01:59:42.360Z,97916.65
2019-04-28T02:02:14.469Z,97915.41
2019-04-28T02:04:46.444Z,97916.20
2019-04-28T02:07:20.448Z,97913.64
2019-04-28T02:09:52.128Z,97917.13
2019-04-28T02:12:24.106Z,97909.72
2019-04-28T02:14:56.085Z,97908.03
2019-04-28T02:17:28.088Z,97901.31
2019-04-28T02:20:00.854Z,97905.29
2019-04-28T02:22:40.005Z,97909.41
2019-04-28T02:25:12.431Z,97904.98
2019-04-28T02:27:44.457Z,97911.22
2019-04-28T02:30:16.559Z,97909.44
2019-04-28T02:32:51.556Z,97909.98
2019-04-28T02:35:22.204Z,97908.29
2019-04-28T02:37:54.161Z,97906.57
2019-04-28T02:40:26.145Z,97907.11
2019-04-28T02:42:58.112Z,97906.80
2019-04-28T02:45:31.604Z,97898.02
2019-04-28T02:48:05.502Z,97903.67
2019-04-28T02:50:51.577Z,97904.94
2019-04-28T02:53:33.165Z,97902.73
2019-04-28T02:56:02.685Z,97903.76
2019-04-28T02:58:34.654Z,97905.09
2019-04-28T03:01:18.480Z,97904.78
2019-04-28T03:03:41.022Z,97909.30
2019-04-28T03:06:13.167Z,97917.81
2019-04-28T03:08:45.153Z,97915.70
2019-04-28T03:11:17.121Z,97921.79
2019-04-28T03:13:51.112Z,97918.27
2019-04-28T03:16:23.124Z,97922.72
2019-04-28T03:18:55.499Z,97924.35
2019-04-28T03:21:27.447Z,97932.14
2019-04-28T03:24:01.260Z,97926.62
2019-04-28T03:26:41.374Z,97937.61
2019-04-28T03:29:21.856Z,97939.08
2019-04-28T03:32:32.734Z,97943.53
2019-04-28T03:34:53.763Z,97948.44
2019-04-28T03:37:24.540Z,97954.62
2019-04-28T03:39:56.791Z,97956.30
2019-04-28T03:42:31.168Z,97962.00
2019-04-28T03:45:04.054Z,97955.86
2019-04-28T03:47:36.009Z,97964.65
2019-04-28T03:50:10.459Z,97963.80
2019-04-28T03:52:42.014Z,97970.88
2019-04-28T03:55:13.978Z,97969.02
2019-04-28T03:57:45.972Z,97969.72
2019-04-28T04:00:18.271Z,97979.78
2019-04-28T04:02:50.842Z,97980.94
2019-04-28T04:05:22.951Z,97977.27
2019-04-28T04:07:54.946Z,97978.59
2019-04-28T04:10:50.279Z,97982.43
2019-04-28T04:13:41.769Z,97984.69
2019-04-28T04:16:31.522Z,97986.86
2019-04-28T04:19:04.246Z,97988.66
2019-04-28T04:21:36.249Z,97987.16
2019-04-28T04:24:10.671Z,97990.78
2019-04-28T04:26:41.928Z,97989.19
2019-04-28T04:29:13.930Z,97997.63
2019-04-28T04:31:45.958Z,98000.67
2019-04-28T04:34:20.076Z,98004.08
2019-04-28T04:36:51.677Z,98001.29
2019-04-28T04:39:23.652Z,98005.66
2019-04-28T04:41:55.662Z,97999.82
2019-04-28T04:44:27.651Z,98003.63
2019-04-28T04:47:01.011Z,98010.47
2019-04-28T04:49:33.211Z,98011.66
2019-04-28T04:52:05.180Z,98007.90
2019-04-28T04:54:37.188Z,98010.46
2019-04-28T04:57:11.108Z,98010.63
2019-04-28T04:59:42.942Z,98004.39
2019-04-28T05:02:33.742Z,98011.02
2019-04-28T05:05:30.406Z,98013.75
2019-04-28T05:08:02.403Z,98015.92
2019-04-28T05:10:34.382Z,98017.16
2019-04-28T05:13:06.421Z,98016.72
2019-04-28T05:15:40.066Z,98015.95
2019-04-28T05:18:12.137Z,98020.80
2019-04-28T05:20:44.295Z,98020.63
2019-04-28T05:23:30.619Z,98030.16
2019-04-28T05:26:07.974Z,98032.63
2019-04-28T05:28:36.955Z,98035.19
2019-04-28T05:31:13.530Z,98032.09
2019-04-28T05:33:44.093Z,98032.39
2019-04-28T05:36:16.055Z,98025.13
2019-04-28T05:38:49.650Z,98029.33
2019-04-28T05:41:21.951Z,98029.00
2019-04-28T05:43:53.952Z,98032.66
2019-04-28T05:46:25.951Z,98034.34
2019-04-28T05:49:07.140Z,98030.91
2019-04-28T05:51:40.530Z,98034.16
2019-04-28T05:54:31.505Z,98035.27
2019-04-28T05:57:21.488Z,98040.72
2019-04-28T06:00:01.180Z,98039.98
2019-04-28T06:02:37.285Z,98046.68
2019-04-28T06:05:10.180Z,98043.20
2019-04-28T06:08:07.452Z,98043.83
2019-04-28T06:10:40.107Z,98049.73
2019-04-28T06:13:12.093Z,98048.51
2019-04-28T06:15:44.078Z,98054.05
2019-04-28T06:18:16.050Z,98055.20
2019-04-28T06:20:49.681Z,98057.98
2019-04-28T06:23:21.931Z,98066.22
2019-04-28T06:25:53.922Z,98063.95
2019-04-28T06:28:25.892Z,98064.53
2019-04-28T06:30:57.876Z,98063.16
2019-04-28T06:33:29.858Z,98060.83
2019-04-28T06:36:01.837Z,98061.44
2019-04-28T06:38:33.821Z,98062.54
2019-04-28T06:41:05.853Z,98063.64
2019-04-28T06:43:37.862Z,98074.80
2019-04-28T06:46:09.820Z,98070.06
2019-04-28T06:48:41.803Z,98076.05
2019-04-28T06:51:13.882Z,98072.33
2019-04-28T06:53:45.913Z,98068.86
2019-04-28T06:56:17.905Z,98063.41
2019-04-28T06:58:58.918Z,98062.02
2019-04-28T07:01:23.962Z,98070.91
2019-04-28T07:03:55.926Z,98069.80
2019-04-28T07:06:27.956Z,98072.43
2019-04-28T07:09:00.336Z,98073.02
2019-04-28T07:11:32.309Z,98080.15
2019-04-28T07:14:04.418Z,98085.83
2019-04-28T07:16:36.473Z,98088.91
2019-04-28T07:19:08.483Z,98086.96
2019-04-28T07:21:49.672Z,98092.64
2019-04-28T07:24:21.692Z,98103.20
2019-04-28T07:26:53.680Z,98094.38
2019-04-28T07:29:25.664Z,98086.16
2019-04-28T07:31:57.753Z,98099.47
2019-04-28T07:34:30.285Z,98101.59
2019-04-28T07:37:02.258Z,98107.12
2019-04-28T07:39:34.305Z,98106.46
2019-04-28T07:42:06.356Z,98112.65
2019-04-28T07:44:38.418Z,98121.56
2019-04-28T07:47:10.394Z,98123.43
2019-04-28T07:49:42.388Z,98128.01
2019-04-28T07:52:36.003Z,98125.34
2019-04-28T07:55:08.309Z,98138.22
2019-04-28T07:57:40.540Z,98137.02
2019-04-28T08:00:15.240Z,98131.24
2019-04-28T08:02:47.250Z,98134.16
2019-04-28T08:05:19.313Z,98137.77
2019-04-28T08:07:51.379Z,98137.17
2019-04-28T08:10:23.361Z,98139.39
2019-04-28T08:12:55.298Z,98139.19
2019-04-28T08:15:27.304Z,98138.73
2019-04-28T08:17:59.308Z,98149.86
2019-04-28T08:20:31.308Z,98155.91
2019-04-28T08:23:04.258Z,98158.30
2019-04-28T08:25:36.255Z,98153.89
2019-04-28T08:28:08.319Z,98152.91
2019-04-28T08:30:40.687Z,98150.39
2019-04-28T08:33:40.856Z,98151.84
2019-04-28T08:36:12.910Z,98154.94
2019-04-28T08:38:44.955Z,98159.41
2019-04-28T08:41:16.925Z,98158.92
2019-04-28T08:43:48.886Z,98161.41
2019-04-28T08:46:21.174Z,98165.30
2019-04-28T08:48:53.125Z,98167.02
2019-04-28T08:51:25.110Z,98170.95
2019-04-28T08:53:57.106Z,98171.51
2019-04-28T08:56:29.102Z,98172.46
2019-04-28T08:59:01.095Z,98179.61
2019-04-28T09:01:33.156Z,98184.55
2019-04-28T09:04:15.239Z,98179.22
2019-04-28T09:06:38.858Z,98177.68
2019-04-28T09:09:15.218Z,98175.11
2019-04-28T09:11:47.230Z,98180.82
2019-04-28T09:14:19.239Z,98176.06
2019-04-28T09:16:51.257Z,98174.84
2019-04-28T09:19:23.280Z,98173.19
2019-04-28T09:21:55.300Z,98179.60
2019-04-28T09:24:27.246Z,98176.70
2019-04-28T09:26:59.240Z,98175.17
2019-04-28T09:29:31.332Z,98177.59
2019-04-28T09:32:03.331Z,98176.30
2019-04-28T09:34:35.338Z,98179.48
2019-04-28T09:37:07.342Z,98179.77
2019-04-28T09:39:56.613Z,98181.70
2019-04-28T09:42:51.218Z,98178.90
2019-04-28T09:45:25.965Z,98179.82
2019-04-28T09:47:57.985Z,98177.89
2019-04-28T09:50:30.363Z,98178.13
2019-04-28T09:53:02.447Z,98182.43
2019-04-28T09:55:34.470Z,98184.69
2019-04-28T09:58:06.538Z,98185.09
2019-04-28T10:00:40.192Z,98179.98
2019-04-28T10:03:12.269Z,98174.86
2019-04-28T10:05:44.256Z,98175.33
2019-04-28T10:08:16.318Z,98172.82
2019-04-28T10:10:48.386Z,98173.70
2019-04-28T10:13:20.612Z,98175.41
2019-04-28T10:15:52.605Z,98175.22
2019-04-28T10:18:24.636Z,98172.33
2019-04-28T10:20:56.668Z,98169.97
2019-04-28T10:23:28.632Z,98172.20
2019-04-28T10:26:01.053Z,98174.11
2019-04-28T10:28:33.092Z,98174.36
2019-04-28T10:31:06.829Z,98176.74
2019-04-28T10:33:40.473Z,98168.08
2019-04-28T10:36:12.738Z,98168.80
2019-04-28T10:38:46.395Z,98169.98
2019-04-28T10:41:25.302Z,98171.14
2019-04-28T10:43:57.255Z,98172.21
2019-04-28T10:46:29.289Z,98171.59
2019-04-28T10:49:01.597Z,98177.65
2019-04-28T10:51:33.610Z,98174.87
2019-04-28T10:54:05.970Z,98174.28
2019-04-28T10:56:37.984Z,98170.47
2019-04-28T10:59:10.493Z,98170.00
2019-04-28T11:01:42.484Z,98165.80
2019-04-28T11:04:32.136Z,98167.42
2019-04-28T11:07:04.408Z,98168.98
2019-04-28T11:09:42.102Z,98170.78
2019-04-28T11:12:19.308Z,98173.80
2019-04-28T11:14:51.354Z,98174.10
2019-04-28T11:17:24.018Z,98167.06
2019-04-28T11:19:55.968Z,98168.18
2019-04-28T11:22:27.998Z,98166.84
2019-04-28T11:25:00.203Z,98168.36
2019-04-28T11:27:32.240Z,98163.77
2019-04-28T11:30:04.322Z,98165.63
2019-04-28T11:32:37.005Z,98167.19
2019-04-28T11:35:37.167Z,98163.47
2019-04-28T11:38:09.194Z,98169.18
2019-04-28T11:40:41.406Z,98167.30
2019-04-28T11:43:13.536Z,98166.55
2019-04-28T11:45:45.708Z,98161.43
2019-04-28T11:48:19.298Z,98160.98
2019-04-28T11:50:51.311Z,98161.10
2019-04-28T11:53:23.359Z,98161.69
2019-04-28T11:55:55.313Z,98162.75
2019-04-28T11:58:27.616Z,98163.55
2019-04-28T12:01:00.049Z,98156.83
2019-04-28T12:03:32.356Z,98161.98
2019-04-28T12:06:04.701Z,98158.89
2019-04-28T12:08:37.153Z,98162.23
2019-04-28T12:11:31.528Z,98162.98
2019-04-28T12:14:14.570Z,98163.57
2019-04-28T12:17:04.239Z,98165.03
2019-04-28T12:19:41.858Z,98166.78
2019-04-28T12:22:14.128Z,98164.94
2019-04-28T12:24:46.400Z,98162.52
2019-04-28T12:27:19.098Z,98162.31
2019-04-28T12:29:51.366Z,98159.58
2019-04-28T12:32:23.576Z,98156.22
2019-04-28T12:34:55.939Z,98156.41
2019-04-28T12:37:27.967Z,98153.05
2019-04-28T12:40:00.158Z,98155.68
2019-04-28T12:42:34.533Z,98158.39
2019-04-28T12:45:07.384Z,98159.97
2019-04-28T12:47:40.135Z,98160.23
2019-04-28T12:50:21.801Z,98157.07
2019-04-28T12:52:54.055Z,98161.03
2019-04-28T12:55:26.253Z,98164.95
2019-04-28T12:57:58.656Z,98162.08
2019-04-28T13:01:01.923Z,98161.12
2019-04-28T13:03:40.523Z,98157.47
2019-04-28T13:06:15.337Z,98156.09
2019-04-28T13:08:47.611Z,98157.98
2019-04-28T13:11:20.177Z,98151.91
2019-04-28T13:13:52.328Z,98153.39
2019-04-28T13:16:26.724Z,98149.27
2019-04-28T13:18:59.052Z,98151.69
2019-04-28T13:21:31.478Z,98153.44
2019-04-28T13:24:03.815Z,98156.92
2019-04-28T13:26:36.171Z,98154.51
2019-04-28T13:29:08.298Z,98155.70
2019-04-28T13:31:40.562Z,98157.48
2019-04-28T13:34:14.569Z,98160.16
2019-04-28T13:36:46.773Z,98158.46
2019-04-28T13:39:25.694Z,98159.50
2019-04-28T13:41:57.931Z,98162.64
2019-04-28T13:44:51.659Z,98158.62
2019-04-28T13:47:23.804Z,98156.77
2019-04-28T13:49:59.271Z,98153.88
2019-04-28T13:52:31.263Z,98150.97
2019-04-28T13:55:25.170Z,98151.39
2019-04-28T13:57:59.364Z,98156.16
2019-04-28T14:00:53.191Z,98154.80
2019-04-28T14:03:33.168Z,98158.20
2019-04-28T14:06:08.344Z,98157.71
2019-04-28T14:08:40.640Z,98150.28
2019-04-28T14:11:12.826Z,98153.79
2019-04-28T14:13:45.349Z,98148.89
2019-04-28T14:16:17.584Z,98155.09
2019-04-28T14:18:49.669Z,98155.48
2019-04-28T14:21:21.640Z,98152.78
2019-04-28T14:23:53.792Z,98150.77
2019-04-28T14:26:25.849Z,98148.56
2019-04-28T14:28:57.992Z,98150.58
2019-04-28T14:31:30.409Z,98149.58
2019-04-28T14:34:02.392Z,98151.55
2019-04-28T14:36:42.013Z,98148.76
2019-04-28T14:39:10.141Z,98151.80
2019-04-28T14:41:42.108Z,98160.73
2019-04-28T14:44:14.207Z,98157.28
2019-04-28T14:46:46.243Z,98158.81
2019-04-28T14:49:18.233Z,98159.81
2019-04-28T14:51:50.472Z,98151.91
2019-04-28T14:54:22.468Z,98160.12
2019-04-28T14:56:54.491Z,98163.73
2019-04-28T14:59:26.500Z,98161.67
2019-04-28T15:02:13.916Z,98157.56
2019-04-28T15:05:07.820Z,98160.06
2019-04-28T15:07:59.022Z,98158.25
2019-04-28T15:10:48.252Z,98156.12
2019-04-28T15:13:22.073Z,98151.61
2019-04-28T15:15:54.155Z,98154.78
2019-04-28T15:18:26.140Z,98145.98
2019-04-28T15:20:58.205Z,98155.34
2019-04-28T15:23:30.231Z,98150.42
2019-04-28T15:26:02.266Z,98152.81
2019-04-28T15:28:34.253Z,98152.81
2019-04-28T15:31:06.331Z,98156.41
2019-04-28T15:33:38.311Z,98151.50
2019-04-28T15:36:10.710Z,98152.66
2019-04-28T15:38:42.731Z,98144.25
2019-04-28T15:41:21.511Z,98146.05
2019-04-28T15:43:48.438Z,98142.34
2019-04-28T15:46:20.683Z,98148.67
2019-04-28T15:48:52.658Z,98142.78
2019-04-28T15:51:24.655Z,98147.06
2019-04-28T15:53:56.621Z,98145.98
2019-04-28T15:56:37.242Z,98141.87
2019-04-28T15:59:10.113Z,98143.66
2019-04-28T16:01:42.286Z,98145.47
2019-04-28T16:04:14.272Z,98142.64
2019-04-28T16:06:46.290Z,98148.22
2019-04-28T16:09:18.272Z,98150.39
2019-04-28T16:11:50.640Z,98154.72
2019-04-28T16:14:22.607Z,98153.05
2019-04-28T16:16:54.601Z,98153.66
2019-04-28T16:19:26.597Z,98155.48
2019-04-28T16:21:58.703Z,98147.86
2019-04-28T16:24:31.063Z,98143.88
2019-04-28T16:27:03.172Z,98153.75
2019-04-28T16:29:35.194Z,98146.27
2019-04-28T16:32:09.705Z,98145.25
2019-04-28T16:34:40.944Z,98153.28
2019-04-28T16:37:12.947Z,98144.94
2019-04-28T16:39:44.946Z,98141.48
2019-04-28T16:42:35.704Z,98143.03
2019-04-28T16:45:09.718Z,98146.00
2019-04-28T16:47:41.706Z,98143.52
2019-04-28T16:50:13.799Z,98148.50
2019-04-28T16:52:45.881Z,98148.86
2019-04-28T16:55:21.594Z,98145.97
2019-04-28T16:58:13.077Z,98151.17
2019-04-28T17:01:06.640Z,98155.36
2019-04-28T17:03:38.861Z,98157.22
2019-04-28T17:06:11.213Z,98153.22
2019-04-28T17:08:44.699Z,98156.68
2019-04-28T17:11:17.011Z,98162.71
2019-04-28T17:13:49.000Z,98163.80
2019-04-28T17:16:21.051Z,98161.67
2019-04-28T17:18:53.077Z,98157.86
2019-04-28T17:21:25.065Z,98159.86
2019-04-28T17:23:57.097Z,98162.11
2019-04-28T17:26:29.092Z,98165.16
2019-04-28T17:29:01.385Z,98169.66
2019-04-28T17:31:33.429Z,98163.39
2019-04-28T17:34:05.786Z,98161.27
2019-04-28T17:36:37.812Z,98165.84
2019-04-28T17:39:19.188Z,98168.91
2019-04-28T17:41:51.180Z,98173.41
2019-04-28T17:44:23.250Z,98174.02
2019-04-28T17:46:55.286Z,98175.54
2019-04-28T17:49:37.292Z,98179.95
2019-04-28T17:52:10.478Z,98175.54
2019-04-28T17:54:42.453Z,98177.99
2019-04-28T17:57:14.469Z,98167.91
2019-04-28T17:59:48.090Z,98169.70
2019-04-28T18:02:37.997Z,98180.30
2019-04-28T18:05:38.603Z,98174.67
2019-04-28T18:08:20.797Z,98184.02
2019-04-28T18:10:44.892Z,98178.95
2019-04-28T18:13:17.022Z,98175.62
2019-04-28T18:16:09.247Z,98176.21
2019-04-28T18:18:47.240Z,98173.83
2019-04-28T18:21:19.211Z,98170.94
2019-04-28T18:23:51.280Z,98183.84
2019-04-28T18:26:23.234Z,98181.78
2019-04-28T18:28:55.256Z,98179.40
2019-04-28T18:31:44.823Z,98182.89
2019-04-28T18:34:38.539Z,98187.63
2019-04-28T18:37:42.128Z,98188.80
2019-04-28T18:40:33.169Z,98194.41
2019-04-28T18:43:36.233Z,98190.27
2019-04-28T18:46:08.311Z,98193.47
2019-04-28T18:48:40.640Z,98191.81
2019-04-28T18:51:12.626Z,98205.04
2019-04-28T18:53:44.746Z,98195.97
2019-04-28T18:56:16.713Z,98198.28
2019-04-28T18:58:48.678Z,98205.55
2019-04-28T19:01:39.917Z,98203.66
2019-04-28T19:04:11.959Z,98199.48
2019-04-28T19:06:43.948Z,98206.38
2019-04-28T19:09:29.638Z,98194.89
2019-04-28T19:12:11.360Z,98198.60
2019-04-28T19:14:50.241Z,98207.86
2019-04-28T19:17:31.903Z,98210.45
2019-04-28T19:20:04.264Z,98201.91
2019-04-28T19:22:44.925Z,98198.86
2019-04-28T19:25:16.919Z,98196.46
2019-04-28T19:27:48.993Z,98189.63
2019-04-28T19:30:21.217Z,98193.41
2019-04-28T19:32:53.194Z,98187.47
2019-04-28T19:35:25.216Z,98191.03
2019-04-28T19:37:57.166Z,98187.31
2019-04-28T19:40:29.142Z,98188.63
2019-04-28T19:43:01.244Z,98191.12
2019-04-28T19:45:34.858Z,98187.70
2019-04-28T19:48:06.888Z,98178.31
2019-04-28T19:50:38.907Z,98172.44
2019-04-28T19:53:10.936Z,98173.92
2019-04-28T19:55:48.167Z,98168.64
2019-04-28T19:58:27.167Z,98162.78
2019-04-28T20:01:12.302Z,98154.13
2019-04-28T20:03:44.352Z,98164.99
2019-04-28T20:06:16.399Z,98159.70
2019-04-28T20:08:48.415Z,98166.56
2019-04-28T20:11:20.687Z,98153.72
2019-04-28T20:13:52.678Z,98147.34
2019-04-28T20:16:24.647Z,98144.14
2019-04-28T20:18:56.635Z,98152.65
2019-04-28T20:21:28.619Z,98151.98
2019-04-28T20:24:00.962Z,98151.88
2019-04-28T20:26:33.003Z,98150.48
2019-04-28T20:29:05.065Z,98150.75
2019-04-28T20:31:37.121Z,98150.16
2019-04-28T20:34:09.131Z,98159.33
2019-04-28T20:37:05.449Z,98171.04
2019-04-28T20:39:37.530Z,98165.24
2019-04-28T20:42:26.947Z,98167.33
2019-04-28T20:44:58.960Z,98160.95
2019-04-28T20:47:31.347Z,98156.91
2019-04-28T20:50:03.313Z,98155.77
2019-04-28T20:52:35.299Z,98161.30
2019-04-28T20:55:07.430Z,98156.02
2019-04-28T20:57:39.431Z,98152.28
2019-04-28T21:00:11.406Z,98153.35
2019-04-28T21:02:43.422Z,98149.25
2019-04-28T21:05:15.393Z,98146.49
2019-04-28T21:07:47.492Z,98135.78
2019-04-28T21:10:19.461Z,98132.55
2019-04-28T21:12:51.481Z,98137.10
2019-04-28T21:15:23.458Z,98139.34
2019-04-28T21:17:55.420Z,98132.88
2019-04-28T21:20:27.395Z,98128.03
2019-04-28T21:22:59.416Z,98119.99
2019-04-28T21:25:31.398Z,98119.59
2019-04-28T21:28:03.428Z,98114.74
2019-04-28T21:30:35.409Z,98112.64
2019-04-28T21:33:07.453Z,98104.97
2019-04-28T21:35:40.158Z,98112.35
2019-04-28T21:38:12.156Z,98103.10
2019-04-28T21:40:44.453Z,98102.70
2019-04-28T21:43:44.458Z,98097.05
2019-04-28T21:46:41.192Z,98097.96
2019-04-28T21:49:44.130Z,98086.22
2019-04-28T21:52:16.121Z,98078.92
2019-04-28T21:54:48.138Z,98075.28
2019-04-28T21:57:20.149Z,98067.69
2019-04-28T21:59:52.143Z,98062.55
2019-04-28T22:02:24.268Z,98063.06
2019-04-28T22:04:56.214Z,98062.63
2019-04-28T22:07:28.264Z,98063.22
2019-04-28T22:10:00.300Z,98066.38
2019-04-28T22:12:32.275Z,98071.40
2019-04-28T22:15:04.262Z,98062.30
2019-04-28T22:17:36.253Z,98065.05
2019-04-28T22:20:08.512Z,98055.88
2019-04-28T22:22:40.500Z,98053.82
2019-04-28T22:25:16.583Z,98053.56
2019-04-28T22:27:48.678Z,98054.44
2019-04-28T22:30:20.976Z,98057.59
2019-04-28T22:32:52.987Z,98063.28
2019-04-28T22:35:24.951Z,98060.86
2019-04-28T22:37:56.891Z,98062.11
2019-04-28T22:40:28.883Z,98053.59
2019-04-28T22:43:01.178Z,98051.61
2019-04-28T22:45:33.202Z,98047.31
2019-04-28T22:48:07.373Z,98048.13
2019-04-28T22:50:47.895Z,98046.53
2019-04-28T22:53:22.855Z,98044.73
2019-04-28T22:56:01.617Z,98034.64
2019-04-28T22:58:51.087Z,98038.11
2019-04-28T23:01:29.887Z,98035.09
2019-04-28T23:04:11.217Z,98036.27
2019-04-28T23:06:43.297Z,98035.16
2019-04-28T23:09:17.354Z,98035.61
2019-04-28T23:11:49.907Z,98038.02
2019-04-28T23:14:21.883Z,98038.35
2019-04-28T23:16:53.869Z,98028.38
2019-04-28T23:19:28.055Z,98029.89
2019-04-28T23:22:15.014Z,98024.60
2019-04-28T23:24:59.017Z,98025.40
2019-04-28T23:27:30.999Z,98019.08
2019-04-28T23:30:03.173Z,98013.39
2019-04-28T23:32:35.115Z,98015.02
2019-04-28T23:35:07.660Z,98002.64
2019-04-28T23:37:40.185Z,97997.75
2019-04-28T23:40:13.643Z,97992.13
2019-04-28T23:42:52.211Z,97987.56
2019-04-28T23:45:24.295Z,97995.26
2019-04-28T23:47:56.279Z,97993.55
2019-04-28T23:50:37.724Z,97996.84
2019-04-28T23:53:14.011Z,98001.00
2019-04-28T23:55:45.987Z,97997.36
2019-04-28T23:58:18.033Z,97997.76
